createdAt,value
2024-01-06T00:02:02.504Z,5.65
2024-01-06T00:07:04.743Z,5.30
2024-01-06T00:12:07.351Z,6.32
2024-01-06T00:17:09.522Z,6.93
2024-01-06T00:22:12.022Z,6.50
2024-01-06T00:27:14.337Z,6.45
2024-01-06T00:32:16.663Z,6.43
2024-01-06T00:37:18.784Z,6.72
2024-01-06T00:42:20.992Z,6.57
2024-01-06T00:47:23.238Z,6.07
2024-01-06T00:52:25.449Z,7.43
2024-01-06T00:57:27.649Z,6.45
2024-01-06T01:02:29.909Z,7.30
2024-01-06T01:07:32.204Z,6.53
2024-01-06T01:12:34.374Z,6.85
2024-01-06T01:17:36.628Z,7.20
2024-01-06T01:22:38.787Z,6.57
2024-01-06T01:27:40.977Z,6.63
2024-01-06T01:32:43.283Z,6.28
2024-01-06T01:37:45.541Z,6.50
2024-01-06T01:42:47.666Z,6.45
2024-01-06T01:47:49.932Z,5.80
2024-01-06T01:52:52.409Z,5.53
2024-01-06T01:57:54.733Z,5.85
2024-01-06T02:02:56.963Z,5.18
2024-01-06T02:07:59.294Z,5.85
2024-01-06T02:13:13.636Z,5.80
2024-01-06T02:18:15.932Z,5.22
2024-01-06T02:23:18.174Z,5.20
2024-01-06T02:28:20.501Z,5.22
2024-01-06T02:33:22.828Z,5.00
2024-01-06T02:38:25.152Z,4.47
2024-01-06T02:43:27.292Z,5.40
2024-01-06T02:48:29.516Z,5.07
2024-01-06T02:53:31.837Z,4.55
2024-01-06T02:58:33.997Z,5.25
2024-01-06T03:03:36.216Z,4.88
2024-01-06T03:08:38.381Z,3.67
2024-01-06T03:13:40.585Z,4.20
2024-01-06T03:18:42.885Z,4.43
2024-01-06T03:23:45.139Z,4.07
2024-01-06T03:28:47.261Z,3.97
2024-01-06T03:33:49.670Z,4.28
2024-01-06T03:38:51.952Z,4.10
2024-01-06T03:43:54.114Z,3.70
2024-01-06T03:48:56.539Z,4.10
2024-01-06T03:53:58.797Z,4.05
2024-01-06T03:59:00.899Z,4.15
2024-01-06T04:04:06.133Z,3.92
2024-01-06T04:09:08.357Z,3.78
2024-01-06T04:14:10.536Z,4.22
2024-01-06T04:19:13.045Z,4.20
2024-01-06T04:24:15.241Z,3.90
2024-01-06T04:29:17.401Z,4.03
2024-01-06T04:34:19.645Z,3.90
2024-01-06T04:39:21.830Z,4.53
2024-01-06T04:44:24.112Z,3.78
2024-01-06T04:49:26.276Z,4.15
2024-01-06T04:54:28.727Z,4.30
2024-01-06T04:59:30.917Z,3.80
2024-01-06T05:04:33.106Z,4.60
2024-01-06T05:09:35.244Z,4.80
2024-01-06T05:14:37.382Z,4.50
2024-01-06T05:19:39.632Z,3.55
2024-01-06T05:24:41.995Z,3.67
2024-01-06T05:29:44.241Z,3.53
2024-01-06T05:34:46.647Z,3.97
2024-01-06T05:39:49.278Z,4.25
2024-01-06T05:44:51.670Z,4.40
2024-01-06T05:49:54.084Z,4.03
2024-01-06T05:54:56.258Z,4.72
2024-01-06T05:59:58.375Z,4.47
2024-01-06T06:05:00.573Z,5.57
2024-01-06T06:10:02.824Z,6.43
2024-01-06T06:15:05.743Z,7.40
2024-01-06T06:20:08.152Z,8.48
2024-01-06T06:25:10.345Z,8.55
2024-01-06T06:30:12.928Z,9.40
2024-01-06T06:35:15.164Z,8.57
2024-01-06T06:40:17.538Z,9.30
2024-01-06T06:45:19.833Z,8.40
2024-01-06T06:50:21.984Z,9.60
2024-01-06T06:55:24.201Z,11.30
2024-01-06T07:00:26.379Z,9.77
2024-01-06T07:05:28.700Z,9.63
2024-01-06T07:10:30.902Z,10.80
2024-01-06T07:15:33.067Z,10.40
2024-01-06T07:20:35.233Z,9.50
2024-01-06T07:25:37.419Z,10.73
2024-01-06T07:30:39.712Z,10.30
2024-01-06T07:35:42.218Z,11.32
2024-01-06T07:40:44.393Z,12.15
2024-01-06T07:45:46.692Z,11.60
2024-01-06T07:50:48.929Z,12.93
2024-01-06T07:55:51.105Z,11.23
2024-01-06T08:00:53.288Z,12.30
2024-01-06T08:05:55.596Z,11.27
2024-01-06T08:10:57.799Z,12.60
2024-01-06T08:15:59.962Z,12.38
2024-01-06T08:21:02.311Z,10.75
2024-01-06T08:26:04.650Z,11.85
2024-01-06T08:31:06.967Z,11.88
2024-01-06T08:36:09.179Z,11.18
2024-01-06T08:41:11.288Z,12.40
2024-01-06T08:46:13.482Z,11.20
2024-01-06T08:51:15.622Z,12.35
2024-01-06T08:56:17.848Z,11.70
2024-01-06T09:01:20.086Z,11.73
2024-01-06T09:06:22.817Z,13.70
2024-01-06T09:11:25.044Z,11.75
2024-01-06T09:16:27.133Z,11.20
2024-01-06T09:21:29.288Z,12.05
2024-01-06T09:26:31.492Z,11.90
2024-01-06T09:31:33.968Z,12.07
2024-01-06T09:36:36.322Z,12.95
2024-01-06T09:41:38.571Z,12.05
2024-01-06T09:46:40.980Z,11.75
2024-01-06T09:51:43.510Z,12.57
2024-01-06T09:56:47.127Z,12.05
2024-01-06T10:01:49.278Z,12.23
2024-01-06T10:06:51.608Z,12.80
2024-01-06T10:11:56.355Z,10.80
2024-01-06T10:16:58.582Z,12.25
2024-01-06T10:22:01.086Z,12.35
2024-01-06T10:27:03.369Z,11.15
2024-01-06T10:32:06.325Z,11.55
2024-01-06T10:37:08.591Z,11.82
2024-01-06T10:42:11.550Z,11.95
2024-01-06T10:47:14.339Z,11.32
2024-01-06T10:52:17.131Z,11.05
2024-01-06T10:57:20.166Z,10.32
2024-01-06T11:02:22.354Z,10.38
2024-01-06T11:07:25.883Z,11.27
2024-01-06T11:12:28.130Z,10.48
2024-01-06T11:17:49.068Z,9.75
2024-01-06T11:22:51.694Z,9.32
2024-01-06T11:27:53.903Z,9.82
2024-01-06T11:32:58.048Z,9.73
2024-01-06T11:38:03.347Z,10.07
2024-01-06T11:43:09.278Z,10.88
2024-01-06T11:48:13.277Z,9.70
2024-01-06T11:58:20.819Z,9.65
2024-01-06T12:03:23.015Z,9.02
2024-01-06T12:08:25.177Z,9.32
2024-01-06T12:13:27.422Z,9.07
2024-01-06T12:18:29.634Z,8.77
2024-01-06T12:23:31.800Z,9.45
2024-01-06T12:28:37.260Z,9.15
2024-01-06T12:33:43.113Z,8.77
2024-01-06T12:38:45.337Z,8.93
2024-01-06T12:43:47.436Z,8.80
2024-01-06T12:48:49.803Z,8.68
2024-01-06T12:53:52.027Z,8.52
2024-01-06T12:58:54.256Z,8.70
2024-01-06T13:03:56.685Z,8.95
2024-01-06T13:08:58.901Z,9.10
2024-01-06T13:14:01.073Z,8.93
2024-01-06T13:19:03.439Z,8.68
2024-01-06T13:24:05.915Z,8.57
2024-01-06T13:29:08.068Z,8.32
2024-01-06T13:34:10.355Z,8.13
2024-01-06T13:39:12.671Z,9.27
2024-01-06T13:44:15.492Z,8.65
2024-01-06T13:49:17.826Z,8.32
2024-01-06T13:54:20.805Z,9.93
2024-01-06T13:59:23.066Z,8.40
2024-01-06T14:04:25.675Z,9.00
2024-01-06T14:09:28.166Z,9.05
2024-01-06T14:14:30.647Z,8.45
2024-01-06T14:19:32.912Z,9.18
2024-01-06T14:24:35.245Z,9.30
2024-01-06T14:29:40.370Z,9.50
2024-01-06T14:34:42.775Z,9.05
2024-01-06T14:39:45.148Z,10.10
2024-01-06T14:44:47.341Z,10.20
2024-01-06T14:49:52.439Z,10.27
2024-01-06T14:54:54.712Z,9.80
2024-01-06T14:59:56.898Z,9.40
2024-01-06T15:04:59.177Z,10.27
2024-01-06T15:10:04.222Z,10.55
2024-01-06T15:15:12.511Z,10.88
2024-01-06T15:20:14.665Z,11.10
2024-01-06T15:25:17.082Z,10.55
2024-01-06T15:30:19.554Z,10.30
2024-01-06T15:35:24.416Z,10.00
2024-01-06T15:40:26.883Z,10.40
2024-01-06T15:45:29.091Z,10.60
2024-01-06T15:50:31.257Z,10.98
2024-01-06T15:55:33.420Z,10.10
2024-01-06T16:00:37.430Z,10.88
2024-01-06T16:05:39.923Z,11.30
2024-01-06T16:10:42.136Z,10.60
2024-01-06T16:15:44.420Z,11.25
2024-01-06T16:20:46.806Z,11.55
2024-01-06T16:25:49.031Z,11.32
2024-01-06T16:30:51.304Z,11.40
2024-01-06T16:35:53.488Z,11.60
2024-01-06T16:40:56.003Z,11.65
2024-01-06T16:45:58.250Z,11.30
2024-01-06T16:51:00.452Z,12.45
2024-01-06T16:56:04.486Z,12.55
2024-01-06T17:01:06.685Z,12.90
2024-01-06T17:06:08.910Z,12.32
2024-01-06T17:11:11.017Z,13.32
2024-01-06T17:16:13.367Z,13.35
2024-01-06T17:21:15.718Z,13.52
2024-01-06T17:26:18.048Z,12.75
2024-01-06T17:31:20.339Z,14.27
2024-01-06T17:36:22.515Z,13.80
2024-01-06T17:41:26.742Z,14.07
2024-01-06T17:46:30.229Z,14.07
2024-01-06T17:51:32.382Z,14.18
2024-01-06T17:56:34.683Z,15.95
2024-01-06T18:01:37.872Z,14.38
2024-01-06T18:06:40.256Z,16.33
2024-01-06T18:11:42.531Z,16.10
2024-01-06T18:16:44.910Z,14.55
2024-01-06T18:21:47.033Z,15.15
2024-01-06T18:26:49.323Z,16.63
2024-01-06T18:31:51.715Z,17.30
2024-01-06T18:36:54.072Z,15.93
2024-01-06T18:41:56.324Z,16.58
2024-01-06T18:46:58.599Z,16.95
2024-01-06T18:52:00.850Z,17.13
2024-01-06T18:57:03.183Z,17.08
2024-01-06T19:02:05.418Z,16.30
2024-01-06T19:07:07.746Z,16.95
2024-01-06T19:12:09.998Z,15.35
2024-01-06T19:17:12.170Z,16.65
2024-01-06T19:22:14.828Z,17.08
2024-01-06T19:27:16.995Z,16.73
2024-01-06T19:32:19.215Z,16.92
2024-01-06T19:37:24.606Z,15.23
2024-01-06T19:42:26.924Z,16.42
2024-01-06T19:47:29.127Z,16.02
2024-01-06T19:52:31.360Z,15.23
2024-01-06T19:57:33.561Z,16.40
2024-01-06T20:02:35.750Z,17.55
2024-01-06T20:07:38.284Z,16.75
2024-01-06T20:12:40.542Z,17.27
2024-01-06T20:17:42.660Z,17.20
2024-01-06T20:22:44.799Z,18.30
2024-01-06T20:27:47.005Z,17.23
2024-01-06T20:32:49.388Z,16.60
2024-01-06T20:37:57.821Z,19.13
2024-01-06T20:42:59.997Z,15.77
2024-01-06T20:48:02.404Z,15.65
2024-01-06T20:53:04.676Z,18.85
2024-01-06T20:58:06.875Z,18.90
2024-01-06T21:03:09.011Z,19.40
2024-01-06T21:08:11.248Z,19.30
2024-01-06T21:13:13.383Z,17.85
2024-01-06T21:18:15.613Z,17.38
2024-01-06T21:23:22.657Z,17.58
2024-01-06T21:28:29.918Z,18.58
2024-01-06T21:33:32.359Z,18.27
2024-01-06T21:38:34.549Z,16.67
2024-01-06T21:43:36.816Z,16.98
2024-01-06T21:48:39.040Z,17.30
2024-01-06T21:53:41.265Z,16.15
2024-01-06T21:58:43.443Z,17.95
2024-01-06T22:03:45.744Z,18.27
2024-01-06T22:08:47.966Z,17.23
2024-01-06T22:13:50.184Z,17.38
2024-01-06T22:18:52.519Z,18.27
2024-01-06T22:23:54.892Z,17.20
2024-01-06T22:28:57.184Z,16.60
2024-01-06T22:33:59.493Z,17.63
2024-01-06T22:39:01.740Z,17.45
2024-01-06T22:44:03.931Z,18.13
2024-01-06T22:49:06.334Z,18.13
2024-01-06T22:54:09.756Z,20.13
2024-01-06T22:59:13.057Z,17.13
2024-01-06T23:04:15.367Z,18.70
2024-01-06T23:09:17.541Z,17.52
2024-01-06T23:14:19.781Z,18.20
2024-01-06T23:19:22.170Z,19.23
2024-01-06T23:24:24.404Z,17.33
2024-01-06T23:29:26.604Z,17.95
2024-01-06T23:34:34.828Z,18.45
2024-01-06T23:39:40.861Z,17.23
2024-01-06T23:44:43.156Z,17.33
2024-01-06T23:49:45.360Z,17.38
2024-01-06T23:54:47.893Z,18.42
2024-01-06T23:59:50.059Z,16.80
